sensor_id;sensor_type;location;lat;lon;timestamp;pressure;altitude;pressure_sealevel;temperature;humidity
22261;BME280;11299;43.202;27.920;2023-05-25T00:01:22;110000.66;;;15.23;100.00
22261;BME280;11299;43.202;27.920;2023-05-25T00:03:48;109636.78;;;15.20;100.00
22261;BME280;11299;43.202;27.920;2023-05-25T00:06:16;109312.78;;;15.38;100.00
22261;BME280;11299;43.202;27.920;2023-05-25T00:08:42;108918.28;;;15.18;100.00
22261;BME280;11299;43.202;27.920;2023-05-25T00:11:09;108948.94;;;15.35;100.00
22261;BME280;11299;43.202;27.920;2023-05-25T00:13:35;108932.69;;;15.26;100.00
22261;BME280;11299;43.202;27.920;2023-05-25T00:16:00;108489.00;;;14.77;100.00
22261;BME280;11299;43.202;27.920;2023-05-25T00:18:26;108199.94;;;15.16;100.00
22261;BME280;11299;43.202;27.920;2023-05-25T00:20:51;107865.88;;;15.29;100.00
22261;BME280;11299;43.202;27.920;2023-05-25T00:23:19;107848.00;;;15.19;100.00
22261;BME280;11299;43.202;27.920;2023-05-25T00:25:45;108185.63;;;15.07;100.00
22261;BME280;11299;43.202;27.920;2023-05-25T00:28:11;108557.28;;;15.16;100.00
22261;BME280;11299;43.202;27.920;2023-05-25T00:30:37;109615.00;;;15.07;100.00
22261;BME280;11299;43.202;27.920;2023-05-25T00:33:03;110344.53;;;15.16;100.00
22261;BME280;11299;43.202;27.920;2023-05-25T00:35:28;112139.16;;;15.19;100.00
22261;BME280;11299;43.202;27.920;2023-05-25T00:37:54;112835.06;;;15.08;100.00
22261;BME280;11299;43.202;27.920;2023-05-25T00:40:20;113556.31;;;15.12;100.00
22261;BME280;11299;43.202;27.920;2023-05-25T00:42:46;114288.16;;;15.20;100.00
22261;BME280;11299;43.202;27.920;2023-05-25T00:45:11;114264.50;;;15.07;100.00
22261;BME280;11299;43.202;27.920;2023-05-25T00:47:38;114251.28;;;15.00;100.00
22261;BME280;11299;43.202;27.920;2023-05-25T00:50:07;113925.50;;;15.18;100.00
22261;BME280;11299;43.202;27.920;2023-05-25T00:52:33;113214.41;;;15.20;100.00
22261;BME280;11299;43.202;27.920;2023-05-25T00:54:59;112140.09;;;15.20;100.00
22261;BME280;11299;43.202;27.920;2023-05-25T00:57:28;111302.94;;;14.53;100.00
22261;BME280;11299;43.202;27.920;2023-05-25T00:59:59;110696.56;;;15.13;100.00
22261;BME280;11299;43.202;27.920;2023-05-25T01:02:26;109600.47;;;14.99;100.00
22261;BME280;11299;43.202;27.920;2023-05-25T01:04:55;109644.94;;;15.24;100.00
22261;BME280;11299;43.202;27.920;2023-05-25T01:07:25;108929.06;;;15.24;100.00
22261;BME280;11299;43.202;27.920;2023-05-25T01:09:58;108560.88;;;15.18;100.00
22261;BME280;11299;43.202;27.920;2023-05-25T01:12:29;109611.34;;;15.05;100.00
22261;BME280;11299;43.202;27.920;2023-05-25T01:14:55;111380.38;;;14.95;100.00
22261;BME280;11299;43.202;27.920;2023-05-25T01:17:21;113192.84;;;15.08;100.00
22261;BME280;11299;43.202;27.920;2023-05-25T01:19:47;113897.22;;;15.02;100.00
22261;BME280;11299;43.202;27.920;2023-05-25T01:22:19;113891.53;;;14.99;100.00
22261;BME280;11299;43.202;27.920;2023-05-25T01:24:53;114209.63;;;14.78;100.00
22261;BME280;11299;43.202;27.920;2023-05-25T01:27:21;114608.34;;;13.11;100.00
22261;BME280;11299;43.202;27.920;2023-05-25T01:29:49;114893.72;;;14.62;100.00
22261;BME280;11299;43.202;27.920;2023-05-25T01:32:16;115035.75;;;13.48;100.00
22261;BME280;11299;43.202;27.920;2023-05-25T01:34:43;115591.97;;;14.53;100.00
22261;BME280;11299;43.202;27.920;2023-05-25T01:37:10;115816.19;;;13.83;100.00
22261;BME280;11299;43.202;27.920;2023-05-25T01:39:41;116666.25;;;14.53;100.00
22261;BME280;11299;43.202;27.920;2023-05-25T01:42:07;116627.56;;;14.33;100.00
22261;BME280;11299;43.202;27.920;2023-05-25T01:44:32;115802.72;;;13.76;100.00
22261;BME280;11299;43.202;27.920;2023-05-25T01:47:04;115560.38;;;14.36;100.00
22261;BME280;11299;43.202;27.920;2023-05-25T01:49:48;115191.31;;;14.30;100.00
22261;BME280;11299;43.202;27.920;2023-05-25T01:52:25;115201.81;;;14.36;100.00
22261;BME280;11299;43.202;27.920;2023-05-25T01:54:59;115558.44;;;14.35;100.00
22261;BME280;11299;43.202;27.920;2023-05-25T01:57:28;116279.53;;;14.38;100.00
22261;BME280;11299;43.202;27.920;2023-05-25T01:59:55;116507.72;;;13.71;100.00
22261;BME280;11299;43.202;27.920;2023-05-25T02:02:27;116971.69;;;14.26;100.00
22261;BME280;11299;43.202;27.920;2023-05-25T02:04:53;118006.81;;;14.06;100.00
22261;BME280;11299;43.202;27.920;2023-05-25T02:07:19;118723.25;;;14.07;100.00
22261;BME280;11299;43.202;27.920;2023-05-25T02:09:45;119315.16;;;13.44;100.00
22261;BME280;11299;43.202;27.920;2023-05-25T02:12:11;120131.72;;;13.95;100.00
22261;BME280;11299;43.202;27.920;2023-05-25T02:14:36;120822.47;;;13.83;100.00
22261;BME280;11299;43.202;27.920;2023-05-25T02:17:01;121231.56;;;14.08;100.00
22261;BME280;11299;43.202;27.920;2023-05-25T02:19:28;121582.56;;;14.05;100.00
22261;BME280;11299;43.202;27.920;2023-05-25T02:21:54;121570.47;;;13.99;100.00
22261;BME280;11299;43.202;27.920;2023-05-25T02:24:21;121919.44;;;13.94;100.00
22261;BME280;11299;43.202;27.920;2023-05-25T02:26:48;121942.69;;;14.06;100.00
22261;BME280;11299;43.202;27.920;2023-05-25T02:29:15;121553.34;;;13.90;100.00
22261;BME280;11299;43.202;27.920;2023-05-25T02:31:40;121194.41;;;13.90;100.00
22261;BME280;11299;43.202;27.920;2023-05-25T02:34:05;121546.31;;;13.87;100.00
22261;BME280;11299;43.202;27.920;2023-05-25T02:36:32;121213.50;;;13.99;100.00
22261;BME280;11299;43.202;27.920;2023-05-25T02:38:59;121166.25;;;13.76;100.00
22261;BME280;11299;43.202;27.920;2023-05-25T02:41:25;121087.91;;;13.37;100.00
22261;BME280;11299;43.202;27.920;2023-05-25T02:43:51;121196.44;;;13.91;100.00
22261;BME280;11299;43.202;27.920;2023-05-25T02:46:18;121192.41;;;13.89;100.00
22261;BME280;11299;43.202;27.920;2023-05-25T02:48:44;121226.56;;;14.06;100.00
22261;BME280;11299;43.202;27.920;2023-05-25T02:51:09;121134.13;;;13.60;100.00
22261;BME280;11299;43.202;27.920;2023-05-25T02:53:35;121118.03;;;13.52;100.00
22261;BME280;11299;43.202;27.920;2023-05-25T02:56:01;120787.41;;;13.65;100.00
22261;BME280;11299;43.202;27.920;2023-05-25T02:58:29;120160.59;;;14.10;100.00
22261;BME280;11299;43.202;27.920;2023-05-25T03:00:54;119443.84;;;14.09;100.00
22261;BME280;11299;43.202;27.920;2023-05-25T03:03:20;118371.38;;;14.10;100.00
22261;BME280;11299;43.202;27.920;2023-05-25T03:05:45;117652.06;;;14.08;100.00
22261;BME280;11299;43.202;27.920;2023-05-25T03:08:11;117171.97;;;13.45;100.00
22261;BME280;11299;43.202;27.920;2023-05-25T03:10:36;116958.13;;;14.19;100.00
22261;BME280;11299;43.202;27.920;2023-05-25T03:13:02;116929.06;;;14.04;100.00
22261;BME280;11299;43.202;27.920;2023-05-25T03:15:27;116585.03;;;14.11;100.00
22261;BME280;11299;43.202;27.920;2023-05-25T03:17:53;116387.00;;;13.08;100.00
22261;BME280;11299;43.202;27.920;2023-05-25T03:20:21;116577.28;;;14.07;100.00
22261;BME280;11299;43.202;27.920;2023-05-25T03:22:49;116954.25;;;14.17;100.00
22261;BME280;11299;43.202;27.920;2023-05-25T03:25:14;116956.19;;;14.18;100.00
22261;BME280;11299;43.202;27.920;2023-05-25T03:27:40;116944.53;;;14.12;100.00
22261;BME280;11299;43.202;27.920;2023-05-25T03:30:06;116614.00;;;14.26;100.00
22261;BME280;11299;43.202;27.920;2023-05-25T03:32:31;115864.16;;;14.08;100.00
22261;BME280;11299;43.202;27.920;2023-05-25T03:34:58;115145.47;;;14.06;100.00
22261;BME280;11299;43.202;27.920;2023-05-25T03:37:23;114809.03;;;14.17;100.00
22261;BME280;11299;43.202;27.920;2023-05-25T03:39:48;113359.84;;;14.06;100.00
22261;BME280;11299;43.202;27.920;2023-05-25T03:42:14;113768.03;;;14.34;100.00
22261;BME280;11299;43.202;27.920;2023-05-25T03:44:40;113035.44;;;14.24;100.00
22261;BME280;11299;43.202;27.920;2023-05-25T03:47:05;112688.47;;;14.30;100.00
22261;BME280;11299;43.202;27.920;2023-05-25T03:49:31;112367.50;;;14.49;100.00
22261;BME280;11299;43.202;27.920;2023-05-25T03:51:56;111646.38;;;14.46;100.00
22261;BME280;11299;43.202;27.920;2023-05-25T03:54:24;110952.13;;;14.57;100.00
22261;BME280;11299;43.202;27.920;2023-05-25T03:56:50;109451.66;;;14.17;100.00
22261;BME280;11299;43.202;27.920;2023-05-25T03:59:16;108125.63;;;14.74;100.00
22261;BME280;11299;43.202;27.920;2023-05-25T04:01:43;106291.41;;;14.46;100.00
22261;BME280;11299;43.202;27.920;2023-05-25T04:04:08;103849.38;;;14.77;100.00
22261;BME280;11299;43.202;27.920;2023-05-25T04:06:33;102123.19;;;15.11;100.00
22261;BME280;11299;43.202;27.920;2023-05-25T04:09:02;99838.97;;;14.23;100.00
22261;BME280;11299;43.202;27.920;2023-05-25T04:11:29;97145.44;;;15.19;100.00
22261;BME280;11299;43.202;27.920;2023-05-25T04:13:54;96430.72;;;15.17;100.00
22261;BME280;11299;43.202;27.920;2023-05-25T04:16:20;97127.75;;;15.07;100.00
22261;BME280;11299;43.202;27.920;2023-05-25T04:18:46;97096.38;;;14.88;100.00
22261;BME280;11299;43.202;27.920;2023-05-25T04:21:11;97475.84;;;15.02;100.00
22261;BME280;11299;43.202;27.920;2023-05-25T04:23:37;99252.91;;;15.00;100.00
22261;BME280;11299;43.202;27.920;2023-05-25T04:26:02;100175.84;;;14.11;100.00
22261;BME280;11299;43.202;27.920;2023-05-25T04:28:28;99636.47;;;15.17;100.00
22261;BME280;11299;43.202;27.920;2023-05-25T04:30:53;99650.50;;;15.25;100.00
22261;BME280;11299;43.202;27.920;2023-05-25T04:33:22;100692.63;;;15.08;100.00
22261;BME280;11299;43.202;27.920;2023-05-25T04:35:49;100002.03;;;15.22;100.00
22261;BME280;11299;43.202;27.920;2023-05-25T04:38:15;97496.00;;;15.15;100.00
22261;BME280;11299;43.202;27.920;2023-05-25T04:40:42;94395.41;;;15.82;100.00
22261;BME280;11299;43.202;27.920;2023-05-25T04:43:07;89408.09;;;15.80;100.00
22261;BME280;11299;43.202;27.920;2023-05-25T04:45:35;86924.44;;;15.84;100.00
22261;BME280;11299;43.202;27.920;2023-05-25T04:48:01;84449.25;;;15.93;100.00
22261;BME280;11299;43.202;27.920;2023-05-25T04:50:27;82570.41;;;15.18;100.00
22261;BME280;11299;43.202;27.920;2023-05-25T04:52:53;82863.28;;;14.72;100.00
22261;BME280;11299;43.202;27.920;2023-05-25T04:55:18;84017.34;;;15.38;100.00
22261;BME280;11299;43.202;27.920;2023-05-25T04:57:44;83772.66;;;16.18;100.00
22261;BME280;11299;43.202;27.920;2023-05-25T05:00:09;81646.38;;;16.22;100.00
22261;BME280;11299;43.202;27.920;2023-05-25T05:02:36;77762.69;;;16.38;100.00
22261;BME280;11299;43.202;27.920;2023-05-25T05:05:02;72790.63;;;16.32;100.00
22261;BME280;11299;43.202;27.920;2023-05-25T05:07:28;70685.19;;;16.49;100.00
22261;BME280;11299;43.202;27.920;2023-05-25T05:09:53;68111.53;;;15.65;100.00
22261;BME280;11299;43.202;27.920;2023-05-25T05:12:19;67110.84;;;16.19;100.00
22261;BME280;11299;43.202;27.920;2023-05-25T05:14:45;66043.94;;;16.13;100.00
22261;BME280;11299;43.202;27.920;2023-05-25T05:17:10;66478.56;;;16.87;100.00
22261;BME280;11299;43.202;27.920;2023-05-25T05:19:36;61517.53;;;16.78;100.00
22261;BME280;11299;43.202;27.920;2023-05-25T05:22:02;61518.56;;;16.79;100.00
22261;BME280;11299;43.202;27.920;2023-05-25T05:24:27;60486.53;;;17.08;100.00
22261;BME280;11299;43.202;27.920;2023-05-25T05:26:53;56247.31;;;17.08;100.00
22261;BME280;11299;43.202;27.920;2023-05-25T05:29:18;54140.50;;;17.20;100.00
22261;BME280;11299;43.202;27.920;2023-05-25T05:31:44;45344.75;;;17.40;100.00
22261;BME280;11299;43.202;27.920;2023-05-25T05:34:09;37601.31;;;17.30;100.00
22261;BME280;11299;43.202;27.920;2023-05-25T05:36:35;31655.09;;;17.66;100.00
22261;BME280;11299;43.202;27.920;2023-05-25T05:39:01;23259.22;;;17.98;100.00
22261;BME280;11299;43.202;27.920;2023-05-25T05:41:27;16270.19;;;18.18;100.00
22261;BME280;11299;43.202;27.920;2023-05-25T05:43:53;3365.00;;;18.19;100.00
22261;BME280;11299;43.202;27.920;2023-05-25T05:46:19;-2544.94;;;16.28;100.00
22261;BME280;11299;43.202;27.920;2023-05-25T05:48:45;-1852.75;;;18.69;100.00
22261;BME280;11299;43.202;27.920;2023-05-25T05:51:10;-16414.72;;;18.06;100.00
22261;BME280;11299;43.202;27.920;2023-05-25T05:53:36;-21277.47;;;18.92;100.00
22261;BME280;11299;43.202;27.920;2023-05-25T05:56:02;-21279.97;;;19.00;100.00
22261;BME280;11299;43.202;27.920;2023-05-25T05:58:28;-21286.22;;;19.20;100.00
22261;BME280;11299;43.202;27.920;2023-05-25T06:00:55;-21273.72;;;18.79;100.00
22261;BME280;11299;43.202;27.920;2023-05-25T06:03:21;-21293.72;;;19.44;100.00
22261;BME280;11299;43.202;27.920;2023-05-25T06:05:47;-21300.44;;;19.65;100.00
22261;BME280;11299;43.202;27.920;2023-05-25T06:08:13;-21287.16;;;19.23;100.00
22261;BME280;11299;43.202;27.920;2023-05-25T06:10:39;-21289.19;;;19.29;100.00
22261;BME280;11299;43.202;27.920;2023-05-25T06:13:05;-21315.56;;;20.14;100.00
22261;BME280;11299;43.202;27.920;2023-05-25T06:15:34;-21317.44;;;20.20;100.00
22261;BME280;11299;43.202;27.920;2023-05-25T06:17:59;-21321.19;;;20.32;100.00
22261;BME280;11299;43.202;27.920;2023-05-25T06:20:25;-21310.88;;;19.99;100.00
22261;BME280;11299;43.202;27.920;2023-05-25T06:22:50;-21298.41;;;19.59;100.00
22261;BME280;11299;43.202;27.920;2023-05-25T06:25:16;-21299.66;;;19.63;100.00
22261;BME280;11299;43.202;27.920;2023-05-25T06:27:41;-21316.50;;;20.17;100.00
22261;BME280;11299;43.202;27.920;2023-05-25T06:30:07;-21320.88;;;20.31;100.00
22261;BME280;11299;43.202;27.920;2023-05-25T06:32:33;-21315.25;;;20.13;100.00
22261;BME280;11299;43.202;27.920;2023-05-25T06:34:59;-21320.88;;;20.31;100.00
22261;BME280;11299;43.202;27.920;2023-05-25T06:37:26;-21328.97;;;20.57;100.00
22261;BME280;11299;43.202;27.920;2023-05-25T06:39:51;-21348.00;;;21.19;100.00
22261;BME280;11299;43.202;27.920;2023-05-25T06:42:17;-21357.34;;;21.49;100.00
22261;BME280;11299;43.202;27.920;2023-05-25T06:44:42;-21350.94;;;21.28;100.00
22261;BME280;11299;43.202;27.920;2023-05-25T06:47:08;-21371.50;;;21.95;100.00
22261;BME280;11299;43.202;27.920;2023-05-25T06:49:33;-21375.72;;;22.08;100.00
22261;BME280;11299;43.202;27.920;2023-05-25T06:51:59;-21380.22;;;22.23;100.00
22261;BME280;11299;43.202;27.920;2023-05-25T06:54:24;-21374.16;;;22.03;100.00
22261;BME280;11299;43.202;27.920;2023-05-25T06:56:50;-21355.31;;;21.42;100.00
22261;BME280;11299;43.202;27.920;2023-05-25T06:59:16;-21343.94;;;21.06;100.00
22261;BME280;11299;43.202;27.920;2023-05-25T07:01:45;-21330.22;;;20.61;100.00
22261;BME280;11299;43.202;27.920;2023-05-25T07:04:10;-21335.97;;;20.80;100.00
22261;BME280;11299;43.202;27.920;2023-05-25T07:06:36;14579.00;;;20.33;100.00
22261;BME280;11299;43.202;27.920;2023-05-25T07:09:01;33172.22;;;19.70;100.00
22261;BME280;11299;43.202;27.920;2023-05-25T07:11:27;47697.69;;;20.43;100.00
22261;BME280;11299;43.202;27.920;2023-05-25T07:13:52;50428.69;;;19.21;100.00
22261;BME280;11299;43.202;27.920;2023-05-25T07:16:18;54400.47;;;20.09;100.00
22261;BME280;11299;43.202;27.920;2023-05-25T07:18:43;63194.66;;;19.31;100.00
22261;BME280;11299;43.202;27.920;2023-05-25T07:21:09;69318.09;;;20.04;100.00
22261;BME280;11299;43.202;27.920;2023-05-25T07:23:35;69644.25;;;19.78;100.00
22261;BME280;11299;43.202;27.920;2023-05-25T07:26:01;74235.66;;;19.45;100.00
22261;BME280;11299;43.202;27.920;2023-05-25T07:28:26;80636.38;;;19.32;100.00
22261;BME280;11299;43.202;27.920;2023-05-25T07:30:52;72176.28;;;20.11;100.00
22261;BME280;11299;43.202;27.920;2023-05-25T07:33:17;70022.81;;;19.97;100.00
22261;BME280;11299;43.202;27.920;2023-05-25T07:35:43;65789.66;;;20.32;100.00
22261;BME280;11299;43.202;27.920;2023-05-25T07:38:08;69262.50;;;19.55;100.00
22261;BME280;11299;43.202;27.920;2023-05-25T07:40:34;71872.72;;;20.55;100.00
22261;BME280;11299;43.202;27.920;2023-05-25T07:43:00;67641.03;;;20.96;100.00
22261;BME280;11299;43.202;27.920;2023-05-25T07:45:25;37845.72;;;21.17;100.00
22261;BME280;11299;43.202;27.920;2023-05-25T07:47:51;38565.88;;;21.38;100.00
22261;BME280;11299;43.202;27.920;2023-05-25T07:50:16;-21346.44;;;21.14;100.00
22261;BME280;11299;43.202;27.920;2023-05-25T07:52:42;-21371.34;;;21.94;100.00
22261;BME280;11299;43.202;27.920;2023-05-25T07:55:08;-21373.22;;;22.00;100.00
22261;BME280;11299;43.202;27.920;2023-05-25T07:57:33;-21370.25;;;21.91;100.00
22261;BME280;11299;43.202;27.920;2023-05-25T07:59:59;-21378.19;;;22.16;100.00
22261;BME280;11299;43.202;27.920;2023-05-25T08:02:25;-21373.84;;;22.02;100.00
22261;BME280;11299;43.202;27.920;2023-05-25T08:04:51;-12326.25;;;21.97;100.00
22261;BME280;11299;43.202;27.920;2023-05-25T08:07:19;-21374.16;;;22.03;100.00
22261;BME280;11299;43.202;27.920;2023-05-25T08:09:45;-21362.31;;;21.65;100.00
22261;BME280;11299;43.202;27.920;2023-05-25T08:12:10;-21383.03;;;22.32;100.00
22261;BME280;11299;43.202;27.920;2023-05-25T08:14:36;-21387.53;;;22.46;100.00
22261;BME280;11299;43.202;27.920;2023-05-25T08:17:02;-21391.13;;;22.58;100.00
22261;BME280;11299;43.202;27.920;2023-05-25T08:19:29;-21401.41;;;22.91;100.00
22261;BME280;11299;43.202;27.920;2023-05-25T08:21:56;-21396.72;;;22.76;100.00
22261;BME280;11299;43.202;27.920;2023-05-25T08:24:21;-21407.16;;;23.10;100.00
22261;BME280;11299;43.202;27.920;2023-05-25T08:26:47;-21407.16;;;23.10;100.00
22261;BME280;11299;43.202;27.920;2023-05-25T08:29:13;-21408.56;;;23.14;100.00
22261;BME280;11299;43.202;27.920;2023-05-25T08:31:38;-21422.09;;;23.58;100.00
22261;BME280;11299;43.202;27.920;2023-05-25T08:34:06;-21409.94;;;23.19;100.00
22261;BME280;11299;43.202;27.920;2023-05-25T08:36:31;-21390.66;;;22.57;100.00
22261;BME280;11299;43.202;27.920;2023-05-25T08:39:00;-21376.81;;;22.12;100.00
22261;BME280;11299;43.202;27.920;2023-05-25T08:41:25;-21431.56;;;23.89;100.00
22261;BME280;11299;43.202;27.920;2023-05-25T08:43:51;-21433.28;;;23.94;100.00
22261;BME280;11299;43.202;27.920;2023-05-25T08:46:29;-21444.16;;;24.30;100.00
22261;BME280;11299;43.202;27.920;2023-05-25T08:49:10;-21463.09;;;24.91;100.00
22261;BME280;11299;43.202;27.920;2023-05-25T08:51:38;-21462.50;;;24.89;100.00
22261;BME280;11299;43.202;27.920;2023-05-25T08:54:08;-21477.06;;;25.36;100.00
22261;BME280;11299;43.202;27.920;2023-05-25T08:56:40;-21453.31;;;24.59;100.00
22261;BME280;11299;43.202;27.920;2023-05-25T09:00:08;-21471.19;;;25.17;100.00
22261;BME280;11299;43.202;27.920;2023-05-25T09:04:58;-21477.69;;;25.38;100.00
22261;BME280;11299;43.202;27.920;2023-05-25T09:07:25;-21476.78;;;25.35;100.00
22261;BME280;11299;43.202;27.920;2023-05-25T09:09:51;-21477.53;;;25.38;100.00
22261;BME280;11299;43.202;27.920;2023-05-25T09:12:17;-21485.94;;;25.65;100.00
22261;BME280;11299;43.202;27.920;2023-05-25T09:14:43;-21488.72;;;25.74;100.00
22261;BME280;11299;43.202;27.920;2023-05-25T09:17:16;-21479.09;;;25.43;100.00
22261;BME280;11299;43.202;27.920;2023-05-25T09:19:42;-21495.41;;;25.95;100.00
22261;BME280;11299;43.202;27.920;2023-05-25T09:22:08;-21478.03;;;25.39;100.00
22261;BME280;11299;43.202;27.920;2023-05-25T09:24:35;-21490.44;;;25.79;100.00
22261;BME280;11299;43.202;27.920;2023-05-25T09:27:02;-21497.25;;;26.01;100.00
22261;BME280;11299;43.202;27.920;2023-05-25T09:29:30;-21502.53;;;26.19;100.00
22261;BME280;11299;43.202;27.920;2023-05-25T09:31:56;-21460.63;;;24.83;100.00
22261;BME280;11299;43.202;27.920;2023-05-25T09:34:21;-21471.81;;;25.19;100.00
22261;BME280;11299;43.202;27.920;2023-05-25T09:36:47;-21383.81;;;22.34;100.00
22261;BME280;11299;43.202;27.920;2023-05-25T09:39:12;-21426.75;;;23.73;100.00
22261;BME280;11299;43.202;27.920;2023-05-25T09:41:41;-21438.88;;;24.12;100.00
22261;BME280;11299;43.202;27.920;2023-05-25T09:44:07;-21416.19;;;23.39;100.00
22261;BME280;11299;43.202;27.920;2023-05-25T09:46:34;-21421.47;;;23.56;100.00
22261;BME280;11299;43.202;27.920;2023-05-25T09:49:07;-21447.88;;;24.42;100.00
22261;BME280;11299;43.202;27.920;2023-05-25T09:51:33;-21459.69;;;24.80;100.00
22261;BME280;11299;43.202;27.920;2023-05-25T09:53:59;-21477.69;;;25.38;100.00
22261;BME280;11299;43.202;27.920;2023-05-25T09:56:30;-21503.78;;;26.23;100.00
22261;BME280;11299;43.202;27.920;2023-05-25T09:58:56;-21514.94;;;26.59;100.00
22261;BME280;11299;43.202;27.920;2023-05-25T10:01:23;-21519.13;;;26.72;100.00
22261;BME280;11299;43.202;27.920;2023-05-25T10:03:48;-21531.38;;;27.12;100.00
22261;BME280;11299;43.202;27.920;2023-05-25T10:06:18;-21562.03;;;28.12;99.61
22261;BME280;11299;43.202;27.920;2023-05-25T10:08:44;-21558.63;;;28.01;97.63
22261;BME280;11299;43.202;27.920;2023-05-25T10:11:15;-21582.47;;;28.78;97.64
22261;BME280;11299;43.202;27.920;2023-05-25T10:13:45;-21594.22;;;29.16;95.43
22261;BME280;11299;43.202;27.920;2023-05-25T10:16:14;-21601.97;;;29.41;94.10
22261;BME280;11299;43.202;27.920;2023-05-25T10:21:12;-21590.66;;;29.05;90.50
22261;BME280;11299;43.202;27.920;2023-05-25T10:23:51;-21575.50;;;28.55;92.01
22261;BME280;11299;43.202;27.920;2023-05-25T10:26:21;-21603.03;;;29.45;91.76
22261;BME280;11299;43.202;27.920;2023-05-25T10:28:55;-21590.50;;;29.04;94.41
22261;BME280;11299;43.202;27.920;2023-05-25T10:31:20;-21555.38;;;27.90;99.17
22261;BME280;11299;43.202;27.920;2023-05-25T10:33:46;-21578.44;;;28.65;99.14
22261;BME280;11299;43.202;27.920;2023-05-25T10:36:12;-21578.75;;;28.66;93.80
22261;BME280;11299;43.202;27.920;2023-05-25T10:38:39;-21588.50;;;28.98;90.21
22261;BME280;11299;43.202;27.920;2023-05-25T10:41:08;-21574.88;;;28.53;87.93
22261;BME280;11299;43.202;27.920;2023-05-25T10:43:35;-21583.25;;;28.80;88.17
22261;BME280;11299;43.202;27.920;2023-05-25T10:46:01;-21597.63;;;29.27;92.98
22261;BME280;11299;43.202;27.920;2023-05-25T10:48:44;-21606.75;;;29.57;90.13
22261;BME280;11299;43.202;27.920;2023-05-25T10:51:10;-21614.94;;;29.84;85.84
22261;BME280;11299;43.202;27.920;2023-05-25T10:53:36;-21618.66;;;29.96;82.89
22261;BME280;11299;43.202;27.920;2023-05-25T10:56:03;-21603.81;;;29.47;82.25
22261;BME280;11299;43.202;27.920;2023-05-25T10:58:30;-21598.56;;;29.30;82.33
22261;BME280;11299;43.202;27.920;2023-05-25T11:03:21;-21572.25;;;28.45;87.87
22261;BME280;11299;43.202;27.920;2023-05-25T11:05:49;-21587.28;;;28.94;90.52
22261;BME280;11299;43.202;27.920;2023-05-25T11:08:15;-21584.00;;;28.83;86.37
22261;BME280;11299;43.202;27.920;2023-05-25T11:18:49;-21601.34;;;29.39;92.72
22261;BME280;11299;43.202;27.920;2023-05-25T11:24:09;-21603.19;;;29.45;98.33
22261;BME280;11299;43.202;27.920;2023-05-25T11:26:35;-21624.84;;;30.16;84.66
22261;BME280;11299;43.202;27.920;2023-05-25T11:29:12;-21601.03;;;29.38;86.17
22261;BME280;11299;43.202;27.920;2023-05-25T11:31:38;-21593.00;;;29.12;84.99
22261;BME280;11299;43.202;27.920;2023-05-25T11:34:04;-21601.03;;;29.38;92.69
22261;BME280;11299;43.202;27.920;2023-05-25T11:36:31;-21601.81;;;29.41;94.20
22261;BME280;11299;43.202;27.920;2023-05-25T11:38:59;-21588.19;;;28.97;97.95
22261;BME280;11299;43.202;27.920;2023-05-25T11:41:28;-21597.00;;;29.25;99.21
22261;BME280;11299;43.202;27.920;2023-05-25T11:43:54;-21601.50;;;29.40;99.46
22261;BME280;11299;43.202;27.920;2023-05-25T11:46:21;-21597.31;;;29.26;97.51
22261;BME280;11299;43.202;27.920;2023-05-25T11:48:53;-21586.50;;;28.91;100.00
22261;BME280;11299;43.202;27.920;2023-05-25T11:51:23;-21559.25;;;28.03;100.00
22261;BME280;11299;43.202;27.920;2023-05-25T11:53:49;-21565.44;;;28.23;100.00
22261;BME280;11299;43.202;27.920;2023-05-25T11:56:15;-21536.63;;;27.29;100.00
22261;BME280;11299;43.202;27.920;2023-05-25T11:58:42;-21547.47;;;27.64;98.92
22261;BME280;11299;43.202;27.920;2023-05-25T12:01:22;-21534.00;;;27.21;100.00
22261;BME280;11299;43.202;27.920;2023-05-25T12:03:49;-21529.19;;;27.05;100.00
22261;BME280;11299;43.202;27.920;2023-05-25T12:08:49;-21498.50;;;26.05;100.00
22261;BME280;11299;43.202;27.920;2023-05-25T12:11:15;-21500.38;;;26.12;100.00
22261;BME280;11299;43.202;27.920;2023-05-25T12:13:41;-21479.88;;;25.45;100.00
22261;BME280;11299;43.202;27.920;2023-05-25T12:16:06;-21481.28;;;25.50;100.00
22261;BME280;11299;43.202;27.920;2023-05-25T12:18:32;-21455.34;;;24.66;100.00
22261;BME280;11299;43.202;27.920;2023-05-25T12:20:57;-21475.69;;;25.32;100.00
22261;BME280;11299;43.202;27.920;2023-05-25T12:23:23;-21478.94;;;25.42;100.00
22261;BME280;11299;43.202;27.920;2023-05-25T12:26:05;-21460.31;;;24.82;100.00
22261;BME280;11299;43.202;27.920;2023-05-25T12:28:30;-21462.19;;;24.88;100.00
22261;BME280;11299;43.202;27.920;2023-05-25T12:30:56;-21478.31;;;25.40;100.00
22261;BME280;11299;43.202;27.920;2023-05-25T12:33:21;-21475.69;;;25.32;100.00
22261;BME280;11299;43.202;27.920;2023-05-25T12:35:48;-21478.47;;;25.41;100.00
22261;BME280;11299;43.202;27.920;2023-05-25T12:38:16;-21461.25;;;24.85;100.00
22261;BME280;11299;43.202;27.920;2023-05-25T12:40:42;-21461.56;;;24.86;100.00
22261;BME280;11299;43.202;27.920;2023-05-25T12:43:07;-21459.06;;;24.78;100.00
22261;BME280;11299;43.202;27.920;2023-05-25T12:45:38;-21439.50;;;24.14;100.00
22261;BME280;11299;43.202;27.920;2023-05-25T12:48:04;-21466.53;;;25.02;100.00
22261;BME280;11299;43.202;27.920;2023-05-25T12:50:29;-21453.47;;;24.60;100.00
22261;BME280;11299;43.202;27.920;2023-05-25T12:53:00;-21472.41;;;25.21;100.00